Time;durP1;ratioP1;P1;durP2;ratioP2;P2;SDS_P1;SDS_P2;PMS_P1;PMS_P2;Temp;Humidity;BMP_temperature;BMP_pressure;BME280_temperature;BME280_humidity;BME280_pressure;Samples;Min_cycle;Max_cycle;Signal;HPM_P1;HPM_P2
2023/03/12 00:00:41;;;;;;;11.43;5.05;;;4.20;99.90;;;;;;4998381;28;20355;-80
2023/03/12 00:03:07;;;;;;;11.18;5.80;;;4.20;99.90;;;;;;4978094;28;20050;-80
2023/03/12 00:05:35;;;;;;;9.38;5.28;;;4.20;99.90;;;;;;4996812;28;20015;-80
2023/03/12 00:08:00;;;;;;;15.70;5.47;;;4.30;99.90;;;;;;4997618;28;20083;-80
2023/03/12 00:10:26;;;;;;;9.32;5.03;;;4.20;99.90;;;;;;4980599;28;20065;-83
2023/03/12 00:12:52;;;;;;;15.65;5.22;;;4.30;99.90;;;;;;4978502;28;20026;-84
2023/03/12 00:15:17;;;;;;;14.23;5.60;;;4.20;99.90;;;;;;4999003;28;20042;-84
2023/03/12 00:17:43;;;;;;;18.38;6.03;;;4.30;99.90;;;;;;4984249;28;20022;-83
2023/03/12 00:20:09;;;;;;;12.07;5.80;;;4.20;99.90;;;;;;4977312;28;20121;-83
2023/03/12 00:22:35;;;;;;;17.70;6.10;;;4.30;99.90;;;;;;4989131;28;20018;-85
2023/03/12 00:25:01;;;;;;;11.27;5.88;;;4.30;99.90;;;;;;4981539;28;20033;-83
2023/03/12 00:27:27;;;;;;;13.27;5.65;;;4.30;99.90;;;;;;4984211;28;20026;-84
2023/03/12 00:29:53;;;;;;;12.48;6.53;;;4.30;99.90;;;;;;4978629;28;20038;-84
2023/03/12 00:32:19;;;;;;;14.02;6.13;;;4.30;99.90;;;;;;4986365;28;20199;-85
2023/03/12 00:34:50;;;;;;;14.75;6.10;;;4.30;99.90;;;;;;5000435;28;20030;-83
2023/03/12 00:37:15;;;;;;;14.18;6.22;;;4.40;99.90;;;;;;4996652;28;20502;-84
2023/03/12 00:39:41;;;;;;;18.70;6.13;;;4.40;99.90;;;;;;4980240;28;20072;-85
2023/03/12 00:42:06;;;;;;;16.48;6.93;;;4.40;99.90;;;;;;4981682;28;20315;-84
2023/03/12 00:44:32;;;;;;;19.63;5.75;;;4.50;99.90;;;;;;4984807;28;20034;-85
2023/03/12 00:46:58;;;;;;;13.73;6.05;;;4.50;99.90;;;;;;4999893;28;20030;-83
2023/03/12 00:49:23;;;;;;;12.18;5.93;;;4.40;99.90;;;;;;4991988;28;20109;-84
2023/03/12 00:51:49;;;;;;;14.60;6.97;;;4.40;99.90;;;;;;4999648;28;20038;-83
2023/03/12 00:54:14;;;;;;;17.95;6.03;;;4.50;99.90;;;;;;4995629;28;20033;-84
2023/03/12 00:56:40;;;;;;;13.18;6.25;;;4.50;99.90;;;;;;5002798;28;20034;-84
2023/03/12 00:59:06;;;;;;;15.80;5.70;;;4.60;99.90;;;;;;5002802;28;20041;-84
2023/03/12 01:01:31;;;;;;;18.52;6.47;;;4.50;99.90;;;;;;4999514;28;20022;-80
2023/03/12 01:03:58;;;;;;;11.23;5.78;;;4.60;99.90;;;;;;5004596;28;20394;-79
2023/03/12 01:06:24;;;;;;;11.73;5.65;;;4.60;99.90;;;;;;4988986;28;20347;-79
2023/03/12 01:08:50;;;;;;;15.65;5.95;;;4.60;99.90;;;;;;5003601;28;20026;-81
2023/03/12 01:11:18;;;;;;;13.77;5.85;;;4.60;99.90;;;;;;4990206;28;20037;-81
2023/03/12 01:13:45;;;;;;;20.95;6.40;;;4.60;99.90;;;;;;4995216;28;20478;-81
2023/03/12 01:16:10;;;;;;;12.63;5.95;;;4.60;99.90;;;;;;4989066;28;20041;-80
2023/03/12 01:18:36;;;;;;;14.82;5.60;;;4.60;99.90;;;;;;4986748;28;20579;-81
2023/03/12 01:21:02;;;;;;;15.55;6.85;;;4.50;99.90;;;;;;4985355;28;20030;-81
2023/03/12 01:23:28;;;;;;;20.52;6.57;;;4.60;99.90;;;;;;5003280;28;20026;-82
2023/03/12 01:25:57;;;;;;;15.88;6.57;;;4.60;99.90;;;;;;5000947;28;20031;-81
2023/03/12 01:28:23;;;;;;;15.07;6.10;;;4.60;99.90;;;;;;5001721;28;20033;-81
2023/03/12 01:30:49;;;;;;;13.63;6.28;;;4.60;99.90;;;;;;4999842;28;20030;-81
2023/03/12 01:33:15;;;;;;;17.33;6.50;;;4.60;99.90;;;;;;5001899;28;20478;-81
2023/03/12 01:35:41;;;;;;;13.32;5.65;;;4.60;99.90;;;;;;5006643;28;20038;-82
2023/03/12 01:38:11;;;;;;;16.73;6.20;;;4.60;99.90;;;;;;4992784;28;20375;-81
2023/03/12 01:40:37;;;;;;;19.13;6.53;;;4.70;99.90;;;;;;4990020;28;20030;-82
2023/03/12 01:43:36;;;;;;;22.48;6.20;;;4.70;99.90;;;;;;5019181;28;20030;-80
2023/03/12 01:46:01;;;;;;;21.90;6.65;;;4.70;99.90;;;;;;4997263;28;20108;-81
2023/03/12 01:48:32;;;;;;;17.00;6.18;;;4.70;99.90;;;;;;5015032;28;20053;-82
2023/03/12 01:50:59;;;;;;;14.82;6.55;;;4.70;99.90;;;;;;4998916;28;20030;-82
2023/03/12 01:53:25;;;;;;;23.02;6.40;;;4.70;99.90;;;;;;4990524;28;20441;-80
2023/03/12 01:55:51;;;;;;;16.60;6.10;;;4.70;99.90;;;;;;4981572;28;20042;-80
2023/03/12 01:58:17;;;;;;;16.63;6.13;;;4.70;99.90;;;;;;4980307;28;20153;-81
2023/03/12 02:00:44;;;;;;;14.48;6.38;;;4.70;99.90;;;;;;4984966;28;20038;-80
2023/03/12 02:03:10;;;;;;;15.82;5.70;;;4.70;99.90;;;;;;4993710;28;20058;-80
2023/03/12 02:06:02;;;;;;;16.08;5.63;;;4.80;99.90;;;;;;4982018;28;20030;-79
2023/03/12 02:08:29;;;;;;;14.70;5.88;;;4.80;99.90;;;;;;4977281;28;20363;-82
2023/03/12 02:10:54;;;;;;;19.33;5.35;;;4.80;99.90;;;;;;5005220;28;20033;-80
2023/03/12 02:13:20;;;;;;;16.70;5.60;;;4.80;99.90;;;;;;4989942;28;20022;-84
2023/03/12 02:15:46;;;;;;;15.30;6.45;;;4.70;99.90;;;;;;4986433;28;20034;-83
2023/03/12 02:18:15;;;;;;;15.75;5.00;;;4.70;99.90;;;;;;4999634;28;20109;-85
2023/03/12 02:20:41;;;;;;;11.80;5.15;;;4.80;99.90;;;;;;5000934;28;20018;-85
2023/03/12 02:23:30;;;;;;;12.32;5.20;;;4.70;99.90;;;;;;4999324;28;20028;-87
2023/03/12 02:25:57;;;;;;;14.18;5.22;;;4.70;99.90;;;;;;4997577;28;20226;-84
2023/03/12 02:28:28;;;;;;;13.38;5.15;;;4.60;99.90;;;;;;4983114;28;20050;-85
2023/03/12 02:30:58;;;;;;;10.43;5.05;;;4.60;99.90;;;;;;4981529;28;20072;-83
2023/03/12 02:33:25;;;;;;;13.77;4.63;;;4.60;99.90;;;;;;4975853;28;20125;-86
2023/03/12 02:35:51;;;;;;;16.60;5.25;;;4.60;99.90;;;;;;4980875;28;20042;-83
2023/03/12 02:38:37;;;;;;;16.38;5.30;;;4.60;99.90;;;;;;4984074;28;20421;-84
2023/03/12 02:41:23;;;;;;;18.83;5.35;;;4.60;99.90;;;;;;4981257;28;20037;-85
2023/03/12 02:43:57;;;;;;;15.65;4.80;;;4.50;99.90;;;;;;5001674;28;20029;-84
2023/03/12 02:46:25;;;;;;;12.50;4.80;;;4.50;99.90;;;;;;5002765;28;20022;-84
2023/03/12 02:48:52;;;;;;;7.65;4.60;;;4.50;99.90;;;;;;5015196;28;20117;-86
2023/03/12 02:51:20;;;;;;;15.57;5.13;;;4.50;99.90;;;;;;4989416;28;20033;-86
2023/03/12 02:53:46;;;;;;;10.30;4.28;;;4.40;99.90;;;;;;4977184;28;20541;-83
2023/03/12 02:56:11;;;;;;;16.83;4.82;;;4.40;99.90;;;;;;4983502;28;20186;-86
2023/03/12 02:58:37;;;;;;;9.85;3.90;;;4.40;99.90;;;;;;4996132;28;20025;-85
2023/03/12 03:01:03;;;;;;;19.27;4.03;;;4.30;99.90;;;;;;4996502;28;20386;-84
2023/03/12 03:03:28;;;;;;;7.80;3.78;;;4.40;99.90;;;;;;5000394;28;20046;-86
2023/03/12 03:05:56;;;;;;;17.83;5.05;;;4.40;99.90;;;;;;4978562;28;20482;-84
2023/03/12 03:08:22;;;;;;;14.35;3.85;;;4.40;99.90;;;;;;4976661;28;20417;-85
2023/03/12 03:10:50;;;;;;;14.48;3.90;;;4.40;99.90;;;;;;5003260;28;20023;-85
2023/03/12 03:13:16;;;;;;;9.63;3.78;;;4.40;99.90;;;;;;4982090;28;20385;-83
2023/03/12 03:15:43;;;;;;;14.43;3.60;;;4.50;99.90;;;;;;5001089;28;20030;-85
2023/03/12 03:18:09;;;;;;;13.52;3.78;;;4.40;99.90;;;;;;4993210;28;20030;-84
2023/03/12 03:20:35;;;;;;;13.80;4.00;;;4.50;99.90;;;;;;4997921;28;20442;-84
2023/03/12 03:23:00;;;;;;;9.23;3.58;;;4.50;99.90;;;;;;4999780;28;20031;-85
2023/03/12 03:25:26;;;;;;;13.88;3.92;;;4.50;99.90;;;;;;4996173;28;20032;-85
2023/03/12 03:27:54;;;;;;;9.10;3.45;;;4.50;99.90;;;;;;4993282;28;20028;-85
2023/03/12 03:30:22;;;;;;;10.55;3.80;;;4.50;99.90;;;;;;4982736;28;20049;-86
2023/03/12 03:32:49;;;;;;;16.77;3.65;;;4.50;99.90;;;;;;4976762;28;20029;-85
2023/03/12 03:35:15;;;;;;;11.20;3.75;;;4.50;99.90;;;;;;4984629;28;20041;-84
2023/03/12 03:37:40;;;;;;;10.20;3.53;;;4.60;99.90;;;;;;4979838;28;20391;-85
2023/03/12 03:40:10;;;;;;;7.38;3.50;;;4.60;99.90;;;;;;4978370;28;20029;-84
2023/03/12 03:42:37;;;;;;;13.32;3.97;;;4.60;99.90;;;;;;4983010;28;20025;-84
2023/03/12 03:45:03;;;;;;;14.63;4.25;;;4.60;99.90;;;;;;4999485;28;20493;-84
2023/03/12 03:47:28;;;;;;;10.93;3.92;;;4.60;99.90;;;;;;4986675;28;20792;-84
2023/03/12 03:49:54;;;;;;;10.77;3.90;;;4.60;99.90;;;;;;4999665;28;20026;-84
2023/03/12 03:52:19;;;;;;;9.65;3.53;;;4.60;99.90;;;;;;4998414;28;20026;-84
2023/03/12 03:54:45;;;;;;;9.60;3.45;;;4.60;99.90;;;;;;5000217;28;20042;-84
2023/03/12 03:57:11;;;;;;;8.23;3.65;;;4.60;99.90;;;;;;4978426;28;20637;-84
2023/03/12 03:59:36;;;;;;;10.60;3.47;;;4.60;99.90;;;;;;4995354;28;20057;-84
2023/03/12 04:02:02;;;;;;;17.58;3.97;;;4.60;99.90;;;;;;4999926;28;20352;-83
2023/03/12 04:04:28;;;;;;;15.05;4.13;;;4.70;99.90;;;;;;4981476;28;20026;-84
2023/03/12 04:06:53;;;;;;;10.10;3.80;;;4.70;99.90;;;;;;4999372;28;20022;-84
2023/03/12 04:09:19;;;;;;;11.30;4.22;;;4.70;99.90;;;;;;4992140;28;20034;-84
2023/03/12 04:11:44;;;;;;;12.13;4.35;;;4.60;99.90;;;;;;4987155;28;20117;-84
2023/03/12 04:14:10;;;;;;;12.98;4.63;;;4.60;99.90;;;;;;4978298;28;20109;-84
2023/03/12 04:16:36;;;;;;;12.23;3.83;;;4.70;99.90;;;;;;4996017;28;20596;-84
2023/03/12 04:19:01;;;;;;;9.90;4.45;;;4.70;99.90;;;;;;4979762;28;20525;-84
2023/03/12 04:21:27;;;;;;;13.20;4.32;;;4.70;99.90;;;;;;4996893;28;20034;-84
2023/03/12 04:23:53;;;;;;;8.98;4.45;;;4.70;99.90;;;;;;4998079;28;20382;-84
2023/03/12 04:26:21;;;;;;;18.65;4.75;;;4.70;99.90;;;;;;4979355;28;20532;-84
2023/03/12 04:28:46;;;;;;;8.75;4.05;;;4.80;99.90;;;;;;4998899;28;20018;-84
2023/03/12 04:31:12;;;;;;;18.52;5.00;;;4.70;99.90;;;;;;4985734;28;20026;-83
2023/03/12 04:33:39;;;;;;;11.20;4.28;;;4.80;99.90;;;;;;5002801;28;20066;-84
2023/03/12 04:36:05;;;;;;;11.75;4.40;;;4.70;99.90;;;;;;4998379;28;20356;-84
2023/03/12 04:38:31;;;;;;;8.98;4.38;;;4.60;99.90;;;;;;5004342;28;20048;-84
2023/03/12 04:41:03;;;;;;;7.10;4.30;;;4.70;99.90;;;;;;4991466;28;20479;-85
2023/03/12 04:43:29;;;;;;;16.10;3.92;;;4.70;99.90;;;;;;4981357;28;20476;-84
2023/03/12 04:45:56;;;;;;;10.00;4.30;;;4.70;99.90;;;;;;5001133;28;20113;-84
2023/03/12 04:48:22;;;;;;;15.13;4.60;;;4.80;99.90;;;;;;5000027;28;20049;-84
2023/03/12 04:50:48;;;;;;;9.02;4.00;;;4.80;99.90;;;;;;5000772;28;20014;-84
2023/03/12 04:53:14;;;;;;;12.55;4.30;;;4.70;99.90;;;;;;4982510;28;20390;-84
2023/03/12 04:55:39;;;;;;;16.85;4.82;;;4.70;99.90;;;;;;5000418;28;20233;-86
2023/03/12 04:58:07;;;;;;;14.15;4.43;;;4.70;99.90;;;;;;4982361;28;20022;-84
2023/03/12 05:00:33;;;;;;;10.98;4.20;;;4.80;99.90;;;;;;4989525;28;20124;-84
2023/03/12 05:02:59;;;;;;;11.13;3.92;;;4.80;99.90;;;;;;5000598;28;20105;-84
2023/03/12 05:05:24;;;;;;;7.63;3.42;;;4.80;99.90;;;;;;4983663;28;20510;-85
2023/03/12 05:07:50;;;;;;;8.25;3.95;;;4.80;99.90;;;;;;4993018;28;20023;-84
2023/03/12 05:10:16;;;;;;;9.65;4.22;;;4.70;99.90;;;;;;5000082;28;20515;-84
2023/03/12 05:12:43;;;;;;;8.60;3.95;;;4.80;99.90;;;;;;4983321;28;20088;-84
2023/03/12 05:15:09;;;;;;;10.77;3.90;;;4.70;99.90;;;;;;4990916;28;20056;-84
2023/03/12 05:17:35;;;;;;;11.32;3.97;;;4.60;99.90;;;;;;4998022;28;20371;-84
2023/03/12 05:20:03;;;;;;;8.90;3.30;;;4.60;99.90;;;;;;4990899;28;20285;-84
2023/03/12 05:22:31;;;;;;;10.77;3.35;;;4.70;99.90;;;;;;4985784;28;20671;-85
2023/03/12 05:24:57;;;;;;;12.70;4.30;;;4.50;99.90;;;;;;4984125;28;20026;-83
2023/03/12 05:27:24;;;;;;;8.80;3.80;;;4.60;99.90;;;;;;5000105;28;20026;-84
2023/03/12 05:29:51;;;;;;;6.57;3.75;;;4.50;99.90;;;;;;4982033;28;20037;-84
2023/03/12 05:32:16;;;;;;;10.98;3.97;;;4.50;99.90;;;;;;4990165;28;20449;-85
2023/03/12 05:34:44;;;;;;;12.27;3.78;;;4.50;99.90;;;;;;4999821;28;20118;-83
2023/03/12 05:37:10;;;;;;;8.00;3.47;;;4.50;99.90;;;;;;5000567;28;20030;-83
2023/03/12 05:39:36;;;;;;;9.32;4.13;;;4.50;99.90;;;;;;4978663;28;20030;-84
2023/03/12 05:42:03;;;;;;;7.72;3.47;;;4.50;99.90;;;;;;4982086;28;20130;-84
2023/03/12 05:44:33;;;;;;;13.48;4.13;;;4.60;99.90;;;;;;4998764;28;20030;-84
2023/03/12 05:46:59;;;;;;;16.48;3.60;;;4.60;99.90;;;;;;5004224;28;20061;-82
2023/03/12 05:49:24;;;;;;;7.82;3.53;;;4.60;99.90;;;;;;5024480;28;20014;-83
2023/03/12 05:51:50;;;;;;;5.28;3.17;;;4.60;99.90;;;;;;4995153;28;20108;-85
2023/03/12 05:54:18;;;;;;;9.48;3.45;;;4.60;99.90;;;;;;4989798;28;20033;-84
2023/03/12 05:56:46;;;;;;;8.75;3.67;;;4.60;99.90;;;;;;4991137;28;20026;-84
2023/03/12 05:59:11;;;;;;;10.18;3.15;;;4.60;99.90;;;;;;4980450;28;20416;-85
2023/03/12 06:01:37;;;;;;;10.05;3.45;;;4.70;99.90;;;;;;5001930;28;20053;-84
2023/03/12 06:04:05;;;;;;;9.60;3.55;;;4.70;99.90;;;;;;4985229;28;20030;-83
2023/03/12 06:06:33;;;;;;;7.32;3.17;;;4.80;99.90;;;;;;4987100;28;20022;-82
2023/03/12 06:08:58;;;;;;;13.50;3.45;;;4.70;99.90;;;;;;5002935;28;20022;-83
2023/03/12 06:11:24;;;;;;;10.13;3.45;;;4.80;99.90;;;;;;5001187;28;20121;-85
2023/03/12 06:13:50;;;;;;;9.25;3.47;;;4.90;99.90;;;;;;5003696;28;20006;-83
2023/03/12 06:16:18;;;;;;;14.48;3.38;;;4.90;99.90;;;;;;5006332;28;20098;-83
2023/03/12 06:18:44;;;;;;;8.80;3.00;;;5.00;99.90;;;;;;5027144;28;20014;-82
2023/03/12 06:21:18;;;;;;;5.88;3.03;;;4.90;99.90;;;;;;5026439;28;20045;-84
2023/03/12 06:23:47;;;;;;;8.05;3.22;;;4.90;99.90;;;;;;5012944;28;20077;-83
2023/03/12 06:26:13;;;;;;;9.15;3.67;;;5.00;99.90;;;;;;5010375;28;20077;-83
2023/03/12 06:28:39;;;;;;;6.88;3.35;;;5.10;99.90;;;;;;5015991;28;20027;-84
2023/03/12 06:31:05;;;;;;;7.82;3.55;;;5.10;99.90;;;;;;5008876;28;20112;-85
2023/03/12 06:33:31;;;;;;;8.48;3.15;;;5.10;99.90;;;;;;4988118;28;20108;-83
2023/03/12 06:36:01;;;;;;;7.18;3.03;;;5.10;99.90;;;;;;4984349;28;20133;-83
2023/03/12 06:38:27;;;;;;;11.65;3.13;;;5.00;99.90;;;;;;5003318;28;20445;-85
2023/03/12 06:41:01;;;;;;;9.93;3.17;;;5.00;99.90;;;;;;4998907;28;20049;-84
2023/03/12 06:43:28;;;;;;;11.07;3.30;;;5.00;99.90;;;;;;4973520;28;20026;-83
2023/03/12 06:45:55;;;;;;;12.52;2.78;;;5.00;99.90;;;;;;5001943;28;20385;-83
2023/03/12 06:48:21;;;;;;;6.00;3.08;;;5.00;99.90;;;;;;4983219;28;20037;-84
2023/03/12 06:50:50;;;;;;;4.97;3.03;;;5.00;99.90;;;;;;5002141;28;20022;-84
2023/03/12 06:53:16;;;;;;;7.50;3.08;;;5.00;99.90;;;;;;4998627;28;20018;-83
2023/03/12 06:55:43;;;;;;;10.10;3.40;;;5.10;99.90;;;;;;5000641;28;20052;-83
2023/03/12 06:58:12;;;;;;;11.93;3.03;;;5.20;99.90;;;;;;4989156;28;20034;-82
2023/03/12 07:00:43;;;;;;;10.77;3.53;;;5.30;99.90;;;;;;5007774;28;20025;-85
2023/03/12 07:03:08;;;;;;;10.00;3.90;;;5.30;99.90;;;;;;4981241;28;20026;-84
2023/03/12 07:05:34;;;;;;;11.55;4.20;;;5.20;99.90;;;;;;5000764;28;20402;-85
2023/03/12 07:08:00;;;;;;;14.18;4.20;;;5.10;99.90;;;;;;4985674;28;20026;-85
2023/03/12 07:10:29;;;;;;;12.80;4.05;;;5.20;99.90;;;;;;4982912;28;20033;-85
2023/03/12 07:12:55;;;;;;;16.40;4.38;;;5.20;99.90;;;;;;4982177;28;20109;-84
2023/03/12 07:15:21;;;;;;;10.13;4.20;;;5.20;99.90;;;;;;4993719;28;20493;-84
2023/03/12 07:17:47;;;;;;;12.57;4.38;;;5.20;99.90;;;;;;5001297;28;20092;-84
2023/03/12 07:20:13;;;;;;;12.20;4.13;;;5.20;99.90;;;;;;4988350;28;20018;-85
2023/03/12 07:22:38;;;;;;;11.23;4.53;;;5.20;99.90;;;;;;4998127;28;20109;-82
2023/03/12 07:25:04;;;;;;;7.72;3.85;;;5.30;99.90;;;;;;4999303;28;20061;-83
2023/03/12 07:27:30;;;;;;;14.52;3.88;;;5.20;99.90;;;;;;5002135;28;20079;-86
2023/03/12 07:29:56;;;;;;;9.55;3.63;;;5.10;99.90;;;;;;4999911;28;20096;-85
2023/03/12 07:32:21;;;;;;;8.40;3.63;;;5.10;99.90;;;;;;4983131;28;20103;-86
2023/03/12 07:34:47;;;;;;;5.45;3.03;;;5.00;99.90;;;;;;4991644;28;20029;-83
2023/03/12 07:37:13;;;;;;;10.57;3.70;;;4.90;99.90;;;;;;4988590;28;20029;-86
2023/03/12 07:39:38;;;;;;;12.48;4.03;;;5.00;99.90;;;;;;4994472;28;20033;-83
2023/03/12 07:42:04;;;;;;;6.68;4.05;;;5.00;99.90;;;;;;4998311;28;20173;-83
2023/03/12 07:44:30;;;;;;;9.68;4.55;;;4.90;99.90;;;;;;4988853;28;20021;-84
2023/03/12 07:46:58;;;;;;;7.57;3.78;;;4.90;99.90;;;;;;4998127;28;20031;-83
2023/03/12 07:49:26;;;;;;;9.70;4.05;;;5.00;99.90;;;;;;5001482;28;20032;-82
2023/03/12 07:51:52;;;;;;;8.45;3.88;;;4.90;99.90;;;;;;5000669;28;20462;-84
2023/03/12 07:54:17;;;;;;;10.45;4.97;;;5.00;99.90;;;;;;4989415;28;20030;-82
2023/03/12 07:56:43;;;;;;;16.10;4.93;;;5.10;99.90;;;;;;4997262;28;20077;-84
2023/03/12 07:59:08;;;;;;;11.27;4.25;;;5.10;99.90;;;;;;5001885;28;20085;-83
2023/03/12 08:01:34;;;;;;;13.95;4.70;;;5.20;99.90;;;;;;5000265;28;20041;-83
2023/03/12 08:04:01;;;;;;;8.98;4.55;;;5.20;99.90;;;;;;5000929;28;20497;-82
2023/03/12 08:06:28;;;;;;;7.88;4.13;;;5.30;99.90;;;;;;5005663;28;20648;-86
2023/03/12 08:08:54;;;;;;;7.95;4.70;;;5.20;99.90;;;;;;4987814;28;20506;-86
2023/03/12 08:11:20;;;;;;;8.82;4.38;;;5.30;99.90;;;;;;5006112;28;20053;-84
2023/03/12 08:13:50;;;;;;;11.55;4.00;;;5.30;99.90;;;;;;4985488;28;20179;-85
2023/03/12 08:16:17;;;;;;;16.50;4.00;;;5.30;99.90;;;;;;4992342;28;20038;-84
2023/03/12 08:18:45;;;;;;;9.55;4.03;;;5.40;99.90;;;;;;4986908;28;20088;-86
2023/03/12 08:21:10;;;;;;;10.50;4.65;;;5.40;99.90;;;;;;4982370;28;20030;-89
2023/03/12 08:23:38;;;;;;;51.70;16.00;;;5.50;99.90;;;;;;5002147;28;20478;-85
2023/03/12 08:26:04;;;;;;;13.73;4.60;;;5.60;99.90;;;;;;5003980;28;20029;-85
2023/03/12 08:28:29;;;;;;;7.75;4.15;;;5.60;99.90;;;;;;4993199;28;20034;-86
2023/03/12 08:30:58;;;;;;;8.38;4.38;;;5.60;99.90;;;;;;4988638;28;20125;-86
2023/03/12 08:33:24;;;;;;;5.75;4.07;;;5.60;99.90;;;;;;4992339;28;20124;-88
2023/03/12 08:35:50;;;;;;;14.10;4.38;;;5.50;99.90;;;;;;5008742;28;20094;-84
2023/03/12 08:38:18;;;;;;;10.63;4.13;;;5.60;99.90;;;;;;5006634;28;20026;-87
2023/03/12 08:40:44;;;;;;;10.90;4.68;;;5.60;99.90;;;;;;4982861;28;20149;-86
2023/03/12 08:43:09;;;;;;;12.30;4.93;;;5.50;99.90;;;;;;4990987;28;20106;-86
2023/03/12 08:45:36;;;;;;;9.63;4.60;;;5.50;99.90;;;;;;5004856;28;20090;-81
2023/03/12 08:48:05;;;;;;;9.93;4.63;;;5.60;99.90;;;;;;4989564;28;20026;-85
2023/03/12 08:50:32;;;;;;;14.80;4.63;;;5.50;99.90;;;;;;5011969;28;20030;-88
2023/03/12 08:52:58;;;;;;;10.20;5.15;;;5.50;99.90;;;;;;4992997;28;20033;-84
2023/03/12 08:55:26;;;;;;;9.52;5.13;;;5.60;99.90;;;;;;4987869;28;20026;-85
2023/03/12 08:57:52;;;;;;;14.70;5.38;;;5.60;99.90;;;;;;5002838;28;20072;-87
2023/03/12 09:00:18;;;;;;;8.20;4.25;;;5.50;99.90;;;;;;4988638;28;20466;-87
2023/03/12 09:02:44;;;;;;;8.63;4.70;;;5.40;99.90;;;;;;4986334;28;20038;-85
2023/03/12 09:05:10;;;;;;;9.38;4.75;;;5.50;99.90;;;;;;4991276;28;20034;-87
2023/03/12 09:07:38;;;;;;;18.02;4.63;;;5.50;99.90;;;;;;5005028;28;20033;-86
2023/03/12 09:10:05;;;;;;;11.70;4.65;;;5.50;99.90;;;;;;4972606;28;20036;-87
2023/03/12 09:12:31;;;;;;;12.88;4.57;;;5.40;99.90;;;;;;4992144;28;20022;-86
2023/03/12 09:14:56;;;;;;;9.07;3.67;;;5.50;99.90;;;;;;4998646;28;20041;-88
2023/03/12 09:17:23;;;;;;;10.40;4.80;;;5.40;99.90;;;;;;4994680;28;20100;-86
2023/03/12 09:19:49;;;;;;;9.88;4.75;;;5.50;99.90;;;;;;5015389;28;20030;-89
2023/03/12 09:22:14;;;;;;;10.75;4.45;;;5.60;99.90;;;;;;4995864;28;20086;-86
2023/03/12 09:24:42;;;;;;;7.50;4.72;;;5.40;99.90;;;;;;4992510;28;20030;-93
2023/03/12 09:27:08;;;;;;;93.32;20.83;;;5.50;99.90;;;;;;4994347;28;20080;-85
2023/03/12 09:29:35;;;;;;;5.82;3.92;;;5.50;99.90;;;;;;4989010;28;20105;-80
2023/03/12 09:32:00;;;;;;;11.48;3.83;;;5.40;99.90;;;;;;4993937;28;20029;-88
2023/03/12 09:34:28;;;;;;;11.05;4.93;;;5.50;99.90;;;;;;5001579;28;20328;-88
2023/03/12 09:36:56;;;;;;;12.10;4.85;;;5.60;99.90;;;;;;4988586;28;20229;-88
2023/03/12 09:39:22;;;;;;;9.18;4.10;;;5.70;99.90;;;;;;4991836;28;20062;-88
2023/03/12 09:41:48;;;;;;;5.43;4.03;;;5.60;99.90;;;;;;5000064;28;20057;-88
2023/03/12 09:47:30;;;;;;;5.63;4.13;;;5.60;99.90;;;;;;5335745;22;20687;-86
2023/03/12 09:50:00;;;;;;;7.60;4.50;;;5.70;99.90;;;;;;4999950;28;20034;-80
2023/03/12 09:52:48;;;;;;;8.30;4.45;;;5.80;99.90;;;;;;4981688;28;20070;-87
2023/03/12 09:55:19;;;;;;;6.85;4.55;;;5.80;99.90;;;;;;4984513;28;20120;-83
2023/03/12 09:57:49;;;;;;;5.90;4.82;;;5.90;99.90;;;;;;4992507;28;20037;-86
2023/03/12 10:00:20;;;;;;;7.28;3.83;;;6.00;99.90;;;;;;4980183;28;20076;-80
2023/03/12 10:02:49;;;;;;;4.50;4.10;;;6.10;99.90;;;;;;4997201;28;20373;-81
2023/03/12 10:05:33;;;;;;;6.47;4.00;;;6.20;99.90;;;;;;4995422;28;20040;-87
2023/03/12 10:08:17;;;;;;;4.88;3.85;;;6.10;99.90;;;;;;4994199;28;20038;-85
2023/03/12 10:11:03;;;;;;;6.93;5.03;;;6.20;99.90;;;;;;4993894;28;20022;-82
2023/03/12 10:13:37;;;;;;;7.88;4.57;;;6.40;99.90;;;;;;4990689;28;20026;-83
2023/03/12 10:16:11;;;;;;;10.75;4.47;;;6.40;99.90;;;;;;4997776;28;20044;-83
2023/03/12 10:19:19;;;;;;;4.82;4.32;;;6.60;99.90;;;;;;4988803;28;20026;-83
2023/03/12 10:22:03;;;;;;;8.32;4.57;;;6.70;99.90;;;;;;4993257;28;20036;-81
2023/03/12 10:24:56;;;;;;;7.30;4.25;;;6.70;99.90;;;;;;4991463;28;20441;-82
2023/03/12 10:27:27;;;;;;;7.60;4.30;;;6.70;99.90;;;;;;4994238;28;20030;-81
2023/03/12 10:29:56;;;;;;;7.32;4.70;;;6.80;99.90;;;;;;4978428;28;20375;-83
2023/03/12 10:32:34;;;;;;;5.55;4.53;;;6.90;99.90;;;;;;4973434;28;20105;-82
2023/03/12 10:35:14;;;;;;;8.40;4.53;;;6.90;99.90;;;;;;4974074;28;20419;-80
2023/03/12 10:37:47;;;;;;;9.07;4.97;;;6.90;99.90;;;;;;4992570;28;20018;-83
2023/03/12 10:40:21;;;;;;;;;;;6.90;99.90;;;;;;4973391;28;20121;-82
2023/03/12 10:42:47;;;;;;;206.23;54.38;;;7.00;99.90;;;;;;4973377;28;20188;-81
2023/03/12 10:45:19;;;;;;;11.23;6.97;;;7.10;99.90;;;;;;4987617;28;20019;-79
2023/03/12 10:47:50;;;;;;;7.70;5.60;;;7.30;99.90;;;;;;4986072;28;20054;-81
2023/03/12 10:50:28;;;;;;;11.77;6.70;;;7.30;99.90;;;;;;4991991;28;20033;-79
2023/03/12 10:53:18;;;;;;;11.35;6.60;;;7.50;99.90;;;;;;4972737;28;20034;-81
2023/03/12 10:56:12;;;;;;;8.85;6.28;;;7.60;99.90;;;;;;4991714;28;20030;-80
2023/03/12 10:58:44;;;;;;;9.98;6.82;;;7.70;99.90;;;;;;4988049;28;20031;-81
2023/03/12 11:01:24;;;;;;;7.63;6.10;;;7.80;99.90;;;;;;4999368;28;20038;-83
2023/03/12 11:03:50;;;;;;;12.13;6.97;;;7.90;99.90;;;;;;4982571;28;20026;-81
2023/03/12 11:06:27;;;;;;;9.93;6.07;;;8.10;99.90;;;;;;5001928;28;20026;-80
2023/03/12 11:09:17;;;;;;;10.52;7.05;;;8.30;99.90;;;;;;5003013;28;20022;-82
2023/03/12 11:11:46;;;;;;;11.75;7.13;;;8.40;99.90;;;;;;5014968;28;20048;-82
2023/03/12 11:14:30;;;;;;;10.18;6.72;;;8.40;99.90;;;;;;4992639;28;20026;-79
2023/03/12 11:17:16;;;;;;;11.35;7.72;;;8.50;99.90;;;;;;4993127;28;20390;-79
2023/03/12 11:19:41;;;;;;;15.23;8.50;;;8.60;99.90;;;;;;4972620;28;20121;-80
2023/03/12 11:22:10;;;;;;;368.38;117.60;;;8.80;99.90;;;;;;4993330;28;20651;-79
2023/03/12 11:24:54;;;;;;;16.95;9.57;;;8.90;99.90;;;;;;4990248;28;20030;-81
2023/03/12 11:27:31;;;;;;;21.90;9.35;;;9.20;99.90;;;;;;4977126;28;20119;-82
2023/03/12 11:30:01;;;;;;;15.32;9.05;;;9.30;99.90;;;;;;4973976;28;20054;-79
2023/03/12 11:32:40;;;;;;;19.40;9.02;;;9.30;99.90;;;;;;4972659;28;20072;-80
2023/03/12 11:35:15;;;;;;;18.83;9.38;;;9.30;99.90;;;;;;4995661;28;20461;-80
2023/03/12 11:38:02;;;;;;;15.60;8.50;;;9.40;99.90;;;;;;4994330;28;20446;-81
2023/03/12 11:40:48;;;;;;;14.75;8.68;;;9.40;99.90;;;;;;4989547;28;20076;-80
2023/03/12 11:43:32;;;;;;;15.95;9.40;;;9.40;99.90;;;;;;4968032;28;20029;-80
2023/03/12 11:46:11;;;;;;;14.68;10.00;;;9.40;99.90;;;;;;4990076;28;20023;-79
2023/03/12 11:48:36;;;;;;;15.55;8.50;;;9.60;99.90;;;;;;4974547;28;20072;-80
2023/03/12 11:51:21;;;;;;;16.45;9.88;;;9.50;99.90;;;;;;4988587;28;20093;-80
2023/03/12 11:54:07;;;;;;;14.50;10.38;;;9.60;99.90;;;;;;4990562;28;20033;-80
2023/03/12 11:56:43;;;;;;;16.08;10.07;;;9.50;99.90;;;;;;4959037;28;20034;-80
2023/03/12 11:59:50;;;;;;;18.73;11.45;;;9.60;99.90;;;;;;4993624;28;20026;-80
2023/03/12 12:02:41;;;;;;;22.98;10.27;;;9.70;99.90;;;;;;4948799;28;20122;-81
2023/03/12 12:05:47;;;;;;;17.45;10.50;;;9.80;99.90;;;;;;4990583;28;20164;-83
2023/03/12 12:08:27;;;;;;;11.70;8.88;;;10.00;99.90;;;;;;4960080;28;20681;-79
2023/03/12 12:11:22;;;;;;;21.13;9.85;;;10.20;99.90;;;;;;4972177;28;20034;-80
2023/03/12 12:14:23;;;;;;;20.33;10.02;;;10.20;99.90;;;;;;4991152;28;20022;-78
2023/03/12 12:17:01;;;;;;;21.52;10.88;;;10.40;99.90;;;;;;4991914;28;20250;-80
2023/03/12 12:19:40;;;;;;;21.13;11.02;;;10.40;99.90;;;;;;4973461;28;20181;-81
2023/03/12 12:22:31;;;;;;;19.95;10.15;;;10.50;99.90;;;;;;4972792;28;20504;-82
2023/03/12 12:25:31;;;;;;;15.65;10.40;;;10.60;99.90;;;;;;4993700;28;20039;-80
2023/03/12 12:28:04;;;;;;;21.77;10.70;;;10.70;99.90;;;;;;4989299;28;20443;-80
2023/03/12 12:31:06;;;;;;;21.77;11.00;;;10.80;99.90;;;;;;4984623;28;20126;-79
2023/03/12 12:33:48;;;;;;;20.65;10.20;;;11.20;99.90;;;;;;4973741;28;20927;-79
2023/03/12 12:36:13;;;;;;;21.63;9.52;;;11.40;99.90;;;;;;4986998;28;20096;-80
2023/03/12 12:39:06;;;;;;;26.02;11.60;;;11.30;99.90;;;;;;4988895;28;20515;-79
2023/03/12 12:41:40;;;;;;;19.30;9.33;;;11.30;99.90;;;;;;4991635;28;20447;-79
2023/03/12 12:44:13;;;;;;;16.58;9.90;;;11.40;99.90;;;;;;4991771;28;20384;-78
2023/03/12 12:46:46;;;;;;;23.83;10.18;;;11.50;99.90;;;;;;4991155;28;20033;-79
2023/03/12 12:49:15;;;;;;;22.60;9.77;;;11.70;99.90;;;;;;4979153;28;20132;-79
2023/03/12 12:51:56;;;;;;;18.45;9.30;;;12.00;99.90;;;;;;4970420;28;20018;-79
2023/03/12 12:54:36;;;;;;;18.50;9.40;;;12.10;99.90;;;;;;4993101;28;20085;-78
2023/03/12 12:57:43;;;;;;;19.40;8.77;;;12.00;99.90;;;;;;4993409;28;20064;-79
2023/03/12 13:00:18;;;;;;;17.25;8.13;;;11.70;99.90;;;;;;4995104;28;20023;-80
2023/03/12 13:02:48;;;;;;;17.90;9.40;;;11.80;99.90;;;;;;4991789;28;20018;-78
2023/03/12 13:05:18;;;;;;;17.13;8.73;;;11.90;99.90;;;;;;4982934;28;20029;-78